aviador You're here:

VVDN Decoded Metar

DANANG in VIET NAM
Report Time2018-05-23 18:30:00
UTC Time2018-05-23 18:54:40
Flight Rules vfr VFR
WindCalm
Visibility9999 m
Phenomena:N/A
Clouds:Few 017 Hf
Expected CloudBase > 1,600 ft AGL from Temp-Dew spread
CeilingNone
Temp28°C (ISA +13)
Dew Point24°C (79% RH)
Heat Index31.9°C
QNH1009 hPa
Density Alt2,051 ft
Elevation23 ft
Report Wrong Elevation
Raw Report
VVDN 231830Z 00000KT 9999 FEW017 28/24 Q1009 NOSIG=

Extra information for VVDN:More info

Metar Taf Metar & Taf Last 4 Metars F.Rules Stats Wind Profile Meteogram Temp Stats Airport Information Weather charts Add Link Nearby VenuesMetar ALERT Operation Metar Decoded Social comments